Time,TemperatureF,DewpointF,PressureIn,WindDirection,WindDirectionDegrees,WindSpeedMPH,WindSpeedGustMPH,Humidity,HourlyPrecipIn,Conditions,Clouds,dailyrainin,SoftwareType,DateUTC
2013-01-22 00:05:00,37.9,26.0,29.52,East,90,0.0,0.0,51,0.00,,,0.00,fowsr,2013-01-22 05:05:00,
2013-01-22 00:10:00,37.8,26.2,29.51,East,90,0.0,0.0,52,0.00,,,0.00,fowsr,2013-01-22 05:10:00,
2013-01-22 00:15:00,37.4,25.9,29.51,East,90,0.0,0.0,52,0.00,,,0.00,fowsr,2013-01-22 05:15:00,
2013-01-22 00:20:00,37.2,24.3,29.52,NW,315,0.0,0.0,48,0.00,,,0.00,fowsr,2013-01-22 05:20:00,
2013-01-22 00:25:00,37.0,24.2,29.52,NW,315,0.0,0.0,48,0.00,,,0.00,fowsr,2013-01-22 05:25:00,
2013-01-22 00:30:00,36.9,24.4,29.52,NW,315,0.0,0.7,49,0.00,,,0.00,fowsr,2013-01-22 05:30:00,
2013-01-22 00:35:00,36.7,24.2,29.53,NW,315,0.0,0.0,49,0.00,,,0.00,fowsr,2013-01-22 05:35:00,
2013-01-22 00:45:00,36.3,24.2,29.53,NW,315,0.0,0.0,50,0.00,,,0.00,fowsr,2013-01-22 05:45:00,
2013-01-22 00:50:00,36.0,23.9,29.53,NW,315,0.0,0.0,50,0.00,,,0.00,fowsr,2013-01-22 05:50:00,
2013-01-22 00:55:00,35.8,23.7,29.52,NW,315,0.0,0.0,50,0.00,,,0.00,fowsr,2013-01-22 05:55:00,
2013-01-22 01:00:00,35.8,23.7,29.53,SW,225,0.0,0.0,50,0.00,,,0.00,fowsr,2013-01-22 06:00:00,
2013-01-22 01:05:00,35.8,23.7,29.53,SW,225,0.0,0.0,50,0.00,,,0.00,fowsr,2013-01-22 06:05:00,
2013-01-22 01:10:00,36.3,23.9,29.53,NW,315,0.0,0.0,49,0.00,,,0.00,fowsr,2013-01-22 06:10:00,
2013-01-22 01:15:00,36.9,24.0,29.53,NW,315,0.0,0.0,48,0.00,,,0.00,fowsr,2013-01-22 06:15:00,
2013-01-22 01:20:00,37.0,24.2,29.53,South,180,0.0,0.0,48,0.00,,,0.00,fowsr,2013-01-22 06:20:00,
2013-01-22 01:25:00,37.4,25.2,29.53,West,270,0.0,0.0,50,0.00,,,0.00,fowsr,2013-01-22 06:25:00,
2013-01-22 01:30:00,37.6,25.0,29.54,NW,315,0.0,0.7,49,0.00,,,0.00,fowsr,2013-01-22 06:30:00,
2013-01-22 01:35:00,37.9,25.0,29.54,West,270,0.0,0.0,48,0.00,,,0.00,fowsr,2013-01-22 06:35:00,
2013-01-22 01:40:00,38.1,24.8,29.54,South,180,0.0,0.0,47,0.00,,,0.00,fowsr,2013-01-22 06:40:00,
2013-01-22 01:45:00,38.1,24.8,29.54,NW,315,0.0,0.0,47,0.00,,,0.00,fowsr,2013-01-22 06:45:00,
2013-01-22 01:50:00,37.9,24.3,29.54,NW,315,0.0,0.0,46,0.00,,,0.00,fowsr,2013-01-22 06:50:00,
2013-01-22 01:55:00,37.8,24.1,29.54,SW,225,0.0,0.7,46,0.00,,,0.00,fowsr,2013-01-22 06:55:00,
2013-01-22 02:00:00,37.9,24.3,29.54,NW,315,0.0,0.0,46,0.00,,,0.00,fowsr,2013-01-22 07:00:00,
2013-01-22 02:10:00,37.4,23.8,29.55,NW,315,0.0,0.0,46,0.00,,,0.00,fowsr,2013-01-22 07:10:00,
2013-01-22 02:15:00,37.2,22.5,29.55,South,180,0.0,0.0,43,0.00,,,0.00,fowsr,2013-01-22 07:15:00,
2013-01-22 02:20:00,36.9,22.2,29.55,SE,135,0.0,0.0,43,0.00,,,0.00,fowsr,2013-01-22 07:20:00,
2013-01-22 02:25:00,36.7,22.4,29.55,South,180,0.0,0.0,44,0.00,,,0.00,fowsr,2013-01-22 07:25:00,
2013-01-22 02:30:00,36.3,22.8,29.56,SW,225,0.0,0.0,46,0.00,,,0.00,fowsr,2013-01-22 07:30:00,
2013-01-22 02:35:00,36.1,22.3,29.56,West,270,0.0,0.7,45,0.00,,,0.00,fowsr,2013-01-22 07:35:00,
2013-01-22 02:40:00,36.3,22.1,29.57,SW,225,0.0,0.0,44,0.00,,,0.00,fowsr,2013-01-22 07:40:00,
2013-01-22 02:45:00,36.5,21.5,29.57,SW,225,0.0,0.0,42,0.00,,,0.00,fowsr,2013-01-22 07:45:00,
2013-01-22 02:50:00,36.7,21.6,29.57,South,180,0.0,1.6,42,0.00,,,0.00,fowsr,2013-01-22 07:50:00,
2013-01-22 02:55:00,36.9,21.4,29.57,SE,135,0.0,0.0,41,0.00,,,0.00,fowsr,2013-01-22 07:55:00,
2013-01-22 03:00:00,36.9,21.0,29.57,East,90,0.0,0.0,40,0.00,,,0.00,fowsr,2013-01-22 08:00:00,
2013-01-22 03:05:00,36.9,21.0,29.57,East,90,0.0,0.0,40,0.00,,,0.00,fowsr,2013-01-22 08:05:00,
2013-01-22 03:10:00,36.7,20.8,29.57,South,180,0.0,0.0,40,0.00,,,0.00,fowsr,2013-01-22 08:10:00,
2013-01-22 03:20:00,36.3,20.5,29.58,SE,135,0.0,0.0,40,0.00,,,0.00,fowsr,2013-01-22 08:20:00,
2013-01-22 03:25:00,36.1,20.8,29.57,South,180,0.0,0.0,41,0.00,,,0.00,fowsr,2013-01-22 08:25:00,
2013-01-22 03:30:00,35.8,20.4,29.58,SW,225,0.0,0.7,41,0.00,,,0.00,fowsr,2013-01-22 08:30:00,
2013-01-22 03:35:00,35.8,20.4,29.57,South,180,0.0,2.2,41,0.00,,,0.00,fowsr,2013-01-22 08:35:00,
2013-01-22 03:40:00,36.0,20.2,29.57,West,270,0.0,0.7,40,0.00,,,0.00,fowsr,2013-01-22 08:40:00,
2013-01-22 03:45:00,36.0,19.8,29.58,SE,135,0.0,0.0,39,0.00,,,0.00,fowsr,2013-01-22 08:45:00,
2013-01-22 03:55:00,35.8,19.6,29.59,SW,225,0.0,0.0,39,0.00,,,0.00,fowsr,2013-01-22 08:55:00,
2013-01-22 04:00:00,35.4,19.7,29.58,NW,315,0.0,0.0,40,0.00,,,0.00,fowsr,2013-01-22 09:00:00,
2013-01-22 04:05:00,35.2,19.6,29.59,North,0,0.0,0.0,40,0.00,,,0.00,fowsr,2013-01-22 09:05:00,
2013-01-22 04:10:00,35.1,19.8,29.58,North,0,0.0,0.0,41,0.00,,,0.00,fowsr,2013-01-22 09:10:00,
2013-01-22 04:15:00,34.7,19.5,29.59,South,180,0.0,1.6,41,0.00,,,0.00,fowsr,2013-01-22 09:15:00,
2013-01-22 04:20:00,34.7,19.5,29.59,South,180,0.0,0.7,41,0.00,,,0.00,fowsr,2013-01-22 09:20:00,
2013-01-22 04:25:00,34.5,19.3,29.59,SW,225,0.0,0.7,41,0.00,,,0.00,fowsr,2013-01-22 09:25:00,
2013-01-22 04:30:00,34.5,19.3,29.60,West,270,0.0,0.7,41,0.00,,,0.00,fowsr,2013-01-22 09:30:00,
2013-01-22 04:35:00,34.3,19.2,29.60,SSW,202,0.0,0.0,41,0.00,,,0.00,fowsr,2013-01-22 09:35:00,
2013-01-22 04:45:00,34.0,18.4,29.61,SE,135,0.0,0.7,40,0.00,,,0.00,fowsr,2013-01-22 09:45:00,
2013-01-22 04:50:00,34.0,18.4,29.61,West,270,0.7,2.2,40,0.00,,,0.00,fowsr,2013-01-22 09:50:00,
2013-01-22 04:55:00,34.2,18.2,29.62,East,90,0.0,0.7,39,0.00,,,0.00,fowsr,2013-01-22 09:55:00,
2013-01-22 05:00:00,34.2,17.8,29.62,North,0,0.0,0.0,38,0.00,,,0.00,fowsr,2013-01-22 10:00:00,
2013-01-22 05:05:00,34.0,16.8,29.62,NW,315,0.7,1.6,36,0.00,,,0.00,fowsr,2013-01-22 10:05:00,
2013-01-22 05:10:00,34.0,15.4,29.62,West,270,0.0,0.0,33,0.00,,,0.00,fowsr,2013-01-22 10:10:00,
2013-01-22 05:15:00,34.0,14.9,29.62,SSE,157,0.0,0.7,32,0.00,,,0.00,fowsr,2013-01-22 10:15:00,
2013-01-22 05:20:00,34.0,14.9,29.63,South,180,0.0,0.0,32,0.00,,,0.00,fowsr,2013-01-22 10:20:00,
2013-01-22 05:25:00,33.8,14.8,29.63,South,180,0.7,1.6,32,0.00,,,0.00,fowsr,2013-01-22 10:25:00,
2013-01-22 05:30:00,33.8,14.3,29.63,NW,315,1.6,2.2,31,0.00,,,0.00,fowsr,2013-01-22 10:30:00,
2013-01-22 05:35:00,33.8,13.3,29.64,South,180,0.0,1.6,29,0.00,,,0.00,fowsr,2013-01-22 10:35:00,
2013-01-22 05:40:00,33.8,12.7,29.64,NW,315,1.6,3.1,28,0.00,,,0.00,fowsr,2013-01-22 10:40:00,
2013-01-22 05:45:00,33.8,11.6,29.64,South,180,0.7,3.1,26,0.00,,,0.00,fowsr,2013-01-22 10:45:00,
2013-01-22 05:50:00,33.6,11.4,29.65,South,180,0.7,1.6,26,0.00,,,0.00,fowsr,2013-01-22 10:50:00,
2013-01-22 05:55:00,33.4,11.3,29.65,West,270,1.6,3.8,26,0.00,,,0.00,fowsr,2013-01-22 10:55:00,
2013-01-22 06:00:00,33.4,11.3,29.65,SW,225,0.7,1.6,26,0.00,,,0.00,fowsr,2013-01-22 11:00:00,
2013-01-22 06:05:00,33.3,11.1,29.66,South,180,0.0,0.0,26,0.00,,,0.00,fowsr,2013-01-22 11:05:00,
2013-01-22 06:10:00,33.1,11.6,29.66,NE,45,0.0,0.0,27,0.00,,,0.00,fowsr,2013-01-22 11:10:00,
2013-01-22 06:15:00,32.9,11.4,29.67,NW,315,0.0,1.6,27,0.00,,,0.00,fowsr,2013-01-22 11:15:00,
2013-01-22 06:20:00,32.7,11.2,29.67,East,90,0.0,0.7,27,0.00,,,0.00,fowsr,2013-01-22 11:20:00,
2013-01-22 06:25:00,32.5,11.1,29.67,NE,45,0.0,2.2,27,0.00,,,0.00,fowsr,2013-01-22 11:25:00,
2013-01-22 06:35:00,32.2,10.8,29.67,North,0,0.0,1.6,27,0.00,,,0.00,fowsr,2013-01-22 11:35:00,
2013-01-22 06:40:00,32.2,10.2,29.67,NW,315,0.0,1.6,26,0.00,,,0.00,fowsr,2013-01-22 11:40:00,
2013-01-22 06:45:00,32.0,10.1,29.68,SE,135,0.0,0.7,26,0.00,,,0.00,fowsr,2013-01-22 11:45:00,
2013-01-22 06:50:00,31.8,10.5,29.68,South,180,0.0,1.6,27,0.00,,,0.00,fowsr,2013-01-22 11:50:00,
2013-01-22 06:55:00,31.8,10.5,29.69,NW,315,0.0,0.7,27,0.00,,,0.00,fowsr,2013-01-22 11:55:00,
2013-01-22 07:00:00,31.6,10.3,29.69,SW,225,0.0,1.6,27,0.00,,,0.00,fowsr,2013-01-22 12:00:00,
2013-01-22 07:05:00,31.6,10.3,29.69,West,270,0.0,0.7,27,0.00,,,0.00,fowsr,2013-01-22 12:05:00,
2013-01-22 07:10:00,31.5,10.2,29.69,SE,135,0.7,2.2,27,0.00,,,0.00,fowsr,2013-01-22 12:10:00,
2013-01-22 07:15:00,31.5,9.6,29.69,NW,315,0.0,0.0,26,0.00,,,0.00,fowsr,2013-01-22 12:15:00,
2013-01-22 07:20:00,31.5,9.6,29.70,NW,315,0.0,0.0,26,0.00,,,0.00,fowsr,2013-01-22 12:20:00,
2013-01-22 07:25:00,31.1,9.3,29.69,West,270,0.0,0.7,26,0.00,,,0.00,fowsr,2013-01-22 12:25:00,
2013-01-22 07:30:00,30.9,9.2,29.70,East,90,0.0,1.6,26,0.00,,,0.00,fowsr,2013-01-22 12:30:00,
2013-01-22 07:35:00,30.9,8.6,29.71,SW,225,0.0,0.0,25,0.00,,,0.00,fowsr,2013-01-22 12:35:00,
2013-01-22 07:40:00,30.7,9.0,29.71,North,0,0.0,0.7,26,0.00,,,0.00,fowsr,2013-01-22 12:40:00,
2013-01-22 07:45:00,30.7,9.0,29.71,NW,315,0.0,0.0,26,0.00,,,0.00,fowsr,2013-01-22 12:45:00,
2013-01-22 07:50:00,30.6,9.4,29.71,SW,225,0.0,1.6,27,0.00,,,0.00,fowsr,2013-01-22 12:50:00,
2013-01-22 07:55:00,30.4,9.3,29.71,West,270,0.0,0.7,27,0.00,,,0.00,fowsr,2013-01-22 12:55:00,
2013-01-22 08:00:00,30.4,9.3,29.71,NE,45,0.0,1.6,27,0.00,,,0.00,fowsr,2013-01-22 13:00:00,
2013-01-22 08:05:00,30.4,9.3,29.71,SE,135,0.0,1.6,27,0.00,,,0.00,fowsr,2013-01-22 13:05:00,
2013-01-22 08:10:00,30.4,9.8,29.71,North,0,0.0,1.6,28,0.00,,,0.00,fowsr,2013-01-22 13:10:00,
2013-01-22 08:15:00,30.4,10.3,29.71,SW,225,0.7,2.2,29,0.00,,,0.00,fowsr,2013-01-22 13:15:00,
2013-01-22 08:20:00,30.4,10.3,29.72,North,0,0.0,0.0,29,0.00,,,0.00,fowsr,2013-01-22 13:20:00,
2013-01-22 08:25:00,30.6,10.5,29.72,North,0,0.0,1.6,29,0.00,,,0.00,fowsr,2013-01-22 13:25:00,
2013-01-22 08:30:00,30.7,10.1,29.73,North,0,0.0,0.7,28,0.00,,,0.00,fowsr,2013-01-22 13:30:00,
2013-01-22 08:35:00,30.7,10.1,29.73,SW,225,0.7,1.6,28,0.00,,,0.00,fowsr,2013-01-22 13:35:00,
2013-01-22 08:40:00,30.9,10.3,29.73,East,90,0.7,2.2,28,0.00,,,0.00,fowsr,2013-01-22 13:40:00,
2013-01-22 08:50:00,31.3,10.0,29.73,NW,315,0.0,0.0,27,0.00,,,0.00,fowsr,2013-01-22 13:50:00,
2013-01-22 08:55:00,31.5,10.2,29.74,NE,45,1.6,3.1,27,0.00,,,0.00,fowsr,2013-01-22 13:55:00,
2013-01-22 09:00:00,31.6,9.8,29.75,East,90,0.7,1.6,26,0.00,,,0.00,fowsr,2013-01-22 14:00:00,
2013-01-22 09:05:00,31.8,9.9,29.75,South,180,0.7,1.6,26,0.00,,,0.00,fowsr,2013-01-22 14:05:00,
2013-01-22 09:10:00,31.8,9.9,29.76,NE,45,1.6,3.1,26,0.00,,,0.00,fowsr,2013-01-22 14:10:00,
2013-01-22 09:15:00,32.0,9.5,29.75,NW,315,0.7,1.6,25,0.00,,,0.00,fowsr,2013-01-22 14:15:00,
2013-01-22 09:20:00,32.2,9.6,29.71,SW,225,0.7,2.2,25,0.00,,,0.00,fowsr,2013-01-22 14:20:00,
2013-01-22 09:25:00,32.2,9.0,29.71,East,90,1.6,3.8,24,0.00,,,0.00,fowsr,2013-01-22 14:25:00,
2013-01-22 09:35:00,32.7,9.5,29.76,SW,225,0.7,1.6,24,0.00,,,0.00,fowsr,2013-01-22 14:35:00,
2013-01-22 09:40:00,33.1,9.8,29.76,NW,315,0.0,0.0,24,0.00,,,0.00,fowsr,2013-01-22 14:40:00,
2013-01-22 09:45:00,33.4,10.1,29.76,NW,315,0.7,1.6,24,0.00,,,0.00,fowsr,2013-01-22 14:45:00,
2013-01-22 09:50:00,34.0,9.2,29.77,NW,315,2.2,4.5,22,0.00,,,0.00,fowsr,2013-01-22 14:50:00,
2013-01-22 09:55:00,34.5,9.7,29.77,NW,315,1.6,2.2,22,0.00,,,0.00,fowsr,2013-01-22 14:55:00,
2013-01-22 10:00:00,34.9,9.3,29.77,SW,225,0.7,1.6,21,0.00,,,0.00,fowsr,2013-01-22 15:00:00,
2013-01-22 10:05:00,35.8,9.3,29.77,SE,135,1.6,3.1,20,0.00,,,0.00,fowsr,2013-01-22 15:05:00,
2013-01-22 10:10:00,36.7,10.0,29.77,SE,135,0.7,2.2,20,0.00,,,0.00,fowsr,2013-01-22 15:10:00,
2013-01-22 10:15:00,37.2,10.5,29.77,NW,315,0.0,0.7,20,0.00,,,0.00,fowsr,2013-01-22 15:15:00,
2013-01-22 10:20:00,37.8,13.0,29.78,West,270,2.2,3.8,23,0.00,,,0.00,fowsr,2013-01-22 15:20:00,
2013-01-22 10:25:00,37.8,13.0,29.77,South,180,0.7,1.6,23,0.00,,,0.00,fowsr,2013-01-22 15:25:00,
2013-01-22 10:30:00,37.6,12.2,29.78,East,90,0.0,0.7,22,0.00,,,0.00,fowsr,2013-01-22 15:30:00,
2013-01-22 10:35:00,38.1,12.7,29.78,West,270,0.0,0.7,22,0.00,,,0.00,fowsr,2013-01-22 15:35:00,
2013-01-22 10:40:00,38.7,13.8,29.78,NE,45,0.0,0.7,23,0.00,,,0.00,fowsr,2013-01-22 15:40:00,
2013-01-22 10:45:00,39.0,14.1,29.78,South,180,1.6,4.5,23,0.00,,,0.00,fowsr,2013-01-22 15:45:00,
2013-01-22 10:50:00,39.0,13.4,29.78,NW,315,0.7,2.2,22,0.00,,,0.00,fowsr,2013-01-22 15:50:00,
2013-01-22 10:55:00,39.0,13.4,29.78,North,0,1.6,5.4,22,0.00,,,0.00,fowsr,2013-01-22 15:55:00,
2013-01-22 11:00:00,39.6,13.1,29.78,NW,315,0.0,0.7,21,0.00,,,0.00,fowsr,2013-01-22 16:00:00,
2013-01-22 11:05:00,39.7,13.3,29.78,West,270,0.7,2.2,21,0.00,,,0.00,fowsr,2013-01-22 16:05:00,
2013-01-22 11:10:00,40.1,13.6,29.78,West,270,0.7,2.2,21,0.00,,,0.00,fowsr,2013-01-22 16:10:00,
2013-01-22 11:15:00,39.6,13.1,29.77,SE,135,0.7,2.2,21,0.00,,,0.00,fowsr,2013-01-22 16:15:00,
2013-01-22 11:20:00,39.4,13.0,29.78,NW,315,0.0,1.6,21,0.00,,,0.00,fowsr,2013-01-22 16:20:00,
2013-01-22 11:25:00,39.7,13.3,29.77,SE,135,0.7,1.6,21,0.00,,,0.00,fowsr,2013-01-22 16:25:00,
2013-01-22 11:30:00,40.8,14.2,29.77,NW,315,1.6,3.1,21,0.00,,,0.00,fowsr,2013-01-22 16:30:00,
2013-01-22 11:40:00,40.8,14.2,29.77,NW,315,0.7,1.6,21,0.00,,,0.00,fowsr,2013-01-22 16:40:00,
2013-01-22 11:45:00,40.8,14.2,29.77,West,270,0.7,2.2,21,0.00,,,0.00,fowsr,2013-01-22 16:45:00,
2013-01-22 11:50:00,39.9,13.4,29.77,NW,315,0.7,1.6,21,0.00,,,0.00,fowsr,2013-01-22 16:50:00,
2013-01-22 11:55:00,39.6,13.1,29.76,SW,225,1.6,3.1,21,0.00,,,0.00,fowsr,2013-01-22 16:55:00,
2013-01-22 12:00:00,39.2,12.8,29.76,West,270,3.1,5.4,21,0.00,,,0.00,fowsr,2013-01-22 17:00:00,
2013-01-22 12:05:00,39.6,13.1,29.76,NW,315,0.0,0.7,21,0.00,,,0.00,fowsr,2013-01-22 17:05:00,
2013-01-22 12:10:00,40.1,13.6,29.75,SE,135,2.2,4.5,21,0.00,,,0.00,fowsr,2013-01-22 17:10:00,
2013-01-22 12:15:00,40.1,13.6,29.75,West,270,0.0,0.7,21,0.00,,,0.00,fowsr,2013-01-22 17:15:00,
2013-01-22 12:20:00,41.0,13.5,29.75,SW,225,0.0,0.7,20,0.00,,,0.00,fowsr,2013-01-22 17:20:00,
2013-01-22 12:25:00,41.0,13.5,29.75,SSW,202,0.7,3.8,20,0.00,,,0.00,fowsr,2013-01-22 17:25:00,
2013-01-22 12:30:00,41.4,13.8,29.75,West,270,0.0,1.6,20,0.00,,,0.00,fowsr,2013-01-22 17:30:00,
2013-01-22 12:35:00,41.9,14.3,29.75,South,180,0.7,1.6,20,0.00,,,0.00,fowsr,2013-01-22 17:35:00,
2013-01-22 12:40:00,41.7,14.1,29.75,SE,135,0.7,2.2,20,0.00,,,0.00,fowsr,2013-01-22 17:40:00,
2013-01-22 12:45:00,41.9,14.3,29.74,SW,225,0.0,0.7,20,0.00,,,0.00,fowsr,2013-01-22 17:45:00,
2013-01-22 12:50:00,42.6,14.9,29.74,WNW,292,1.6,3.8,20,0.00,,,0.00,fowsr,2013-01-22 17:50:00,
2013-01-22 12:55:00,42.4,14.7,29.74,South,180,2.2,3.8,20,0.00,,,0.00,fowsr,2013-01-22 17:55:00,
2013-01-22 13:00:00,42.6,14.9,29.74,NW,315,0.0,0.7,20,0.00,,,0.00,fowsr,2013-01-22 18:00:00,
2013-01-22 13:05:00,42.6,14.9,29.73,South,180,3.1,4.5,20,0.00,,,0.00,fowsr,2013-01-22 18:05:00,
2013-01-22 13:10:00,41.9,14.3,29.73,SW,225,0.7,2.2,20,0.00,,,0.00,fowsr,2013-01-22 18:10:00,
2013-01-22 13:15:00,42.1,14.4,29.73,SW,225,2.2,3.8,20,0.00,,,0.00,fowsr,2013-01-22 18:15:00,
2013-01-22 13:20:00,41.5,14.0,29.73,North,0,1.6,4.5,20,0.00,,,0.00,fowsr,2013-01-22 18:20:00,
2013-01-22 13:25:00,41.7,14.1,29.73,NW,315,0.7,1.6,20,0.00,,,0.00,fowsr,2013-01-22 18:25:00,
2013-01-22 13:30:00,41.5,14.0,29.73,South,180,0.0,0.7,20,0.00,,,0.00,fowsr,2013-01-22 18:30:00,
2013-01-22 13:40:00,42.3,14.6,29.73,East,90,0.7,1.6,20,0.00,,,0.00,fowsr,2013-01-22 18:40:00,
2013-01-22 13:45:00,42.6,14.9,29.73,NW,315,1.6,3.1,20,0.00,,,0.00,fowsr,2013-01-22 18:45:00,
2013-01-22 13:50:00,42.8,14.2,29.73,SE,135,0.7,2.2,19,0.00,,,0.00,fowsr,2013-01-22 18:50:00,
2013-01-22 13:55:00,42.4,14.7,29.73,West,270,1.6,3.8,20,0.00,,,0.00,fowsr,2013-01-22 18:55:00,
2013-01-22 14:00:00,42.3,14.6,29.73,North,0,2.2,3.8,20,0.00,,,0.00,fowsr,2013-01-22 19:00:00,
2013-01-22 14:05:00,42.1,14.4,29.73,West,270,2.2,3.1,20,0.00,,,0.00,fowsr,2013-01-22 19:05:00,
2013-01-22 14:10:00,41.9,14.3,29.73,NW,315,0.0,0.7,20,0.00,,,0.00,fowsr,2013-01-22 19:10:00,
2013-01-22 14:20:00,42.8,14.2,29.72,South,180,1.6,3.1,19,0.00,,,0.00,fowsr,2013-01-22 19:20:00,
2013-01-22 14:25:00,42.6,14.9,29.73,NW,315,0.7,1.6,20,0.00,,,0.00,fowsr,2013-01-22 19:25:00,
2013-01-22 14:30:00,42.8,14.2,29.73,South,180,0.7,2.2,19,0.00,,,0.00,fowsr,2013-01-22 19:30:00,
2013-01-22 14:35:00,42.8,14.2,29.68,SW,225,1.6,3.8,19,0.00,,,0.00,fowsr,2013-01-22 19:35:00,
2013-01-22 14:45:00,42.8,14.2,29.72,SW,225,1.6,3.1,19,0.00,,,0.00,fowsr,2013-01-22 19:45:00,
2013-01-22 14:50:00,43.0,14.4,29.72,SE,135,0.0,0.7,19,0.00,,,0.00,fowsr,2013-01-22 19:50:00,
2013-01-22 14:55:00,43.2,14.5,29.73,South,180,0.7,1.6,19,0.00,,,0.00,fowsr,2013-01-22 19:55:00,
2013-01-22 15:00:00,43.2,14.5,29.73,South,180,0.7,2.2,19,0.00,,,0.00,fowsr,2013-01-22 20:00:00,
2013-01-22 15:10:00,42.4,14.7,29.73,NNW,337,0.7,2.2,20,0.00,,,0.00,fowsr,2013-01-22 20:10:00,
2013-01-22 15:15:00,42.4,14.7,29.73,West,270,0.7,2.2,20,0.00,,,0.00,fowsr,2013-01-22 20:15:00,
2013-01-22 15:20:00,42.1,14.4,29.73,West,270,1.6,2.2,20,0.00,,,0.00,fowsr,2013-01-22 20:20:00,
2013-01-22 15:25:00,42.3,14.6,29.72,South,180,2.2,3.8,20,0.00,,,0.00,fowsr,2013-01-22 20:25:00,
2013-01-22 15:30:00,42.4,14.7,29.73,NW,315,0.7,2.2,20,0.00,,,0.00,fowsr,2013-01-22 20:30:00,
2013-01-22 15:35:00,42.6,14.9,29.73,NW,315,1.6,2.2,20,0.00,,,0.00,fowsr,2013-01-22 20:35:00,
2013-01-22 15:40:00,42.1,14.4,29.73,South,180,2.2,4.5,20,0.00,,,0.00,fowsr,2013-01-22 20:40:00,
2013-01-22 15:45:00,41.5,14.0,29.73,NW,315,1.6,2.2,20,0.00,,,0.00,fowsr,2013-01-22 20:45:00,
2013-01-22 15:55:00,41.0,13.5,29.74,SE,135,0.0,0.7,20,0.00,,,0.00,fowsr,2013-01-22 20:55:00,
2013-01-22 16:00:00,41.7,14.1,29.74,West,270,0.7,2.2,20,0.00,,,0.00,fowsr,2013-01-22 21:00:00,
2013-01-22 16:05:00,41.5,14.0,29.74,North,0,2.2,3.8,20,0.00,,,0.00,fowsr,2013-01-22 21:05:00,
2013-01-22 16:10:00,41.4,13.8,29.73,SE,135,0.0,1.6,20,0.00,,,0.00,fowsr,2013-01-22 21:10:00,
2013-01-22 16:15:00,41.2,13.7,29.73,NE,45,0.7,1.6,20,0.00,,,0.00,fowsr,2013-01-22 21:15:00,
2013-01-22 16:20:00,40.5,13.9,29.73,NW,315,0.0,0.7,21,0.00,,,0.00,fowsr,2013-01-22 21:20:00,
2013-01-22 16:25:00,39.7,13.3,29.74,South,180,0.0,0.7,21,0.00,,,0.00,fowsr,2013-01-22 21:25:00,
2013-01-22 16:30:00,39.0,13.4,29.74,SW,225,0.7,1.6,22,0.00,,,0.00,fowsr,2013-01-22 21:30:00,
2013-01-22 16:35:00,38.5,12.9,29.74,SW,225,1.6,3.1,22,0.00,,,0.00,fowsr,2013-01-22 21:35:00,
2013-01-22 16:40:00,38.3,12.8,29.73,SW,225,0.0,0.7,22,0.00,,,0.00,fowsr,2013-01-22 21:40:00,
2013-01-22 16:45:00,37.9,12.5,29.74,SW,225,0.7,1.6,22,0.00,,,0.00,fowsr,2013-01-22 21:45:00,
2013-01-22 16:50:00,37.6,12.2,29.74,North,0,1.6,3.1,22,0.00,,,0.00,fowsr,2013-01-22 21:50:00,
2013-01-22 16:55:00,37.4,12.1,29.75,SW,225,0.7,2.2,22,0.00,,,0.00,fowsr,2013-01-22 21:55:00,
2013-01-22 17:00:00,37.4,12.1,29.75,SW,225,0.7,1.6,22,0.00,,,0.00,fowsr,2013-01-22 22:00:00,
2013-01-22 17:05:00,37.2,8.9,29.75,South,180,0.0,0.7,18,0.00,,,0.00,fowsr,2013-01-22 22:05:00,
2013-01-22 17:10:00,37.0,8.8,29.75,SE,135,0.0,0.7,18,0.00,,,0.00,fowsr,2013-01-22 22:10:00,
2013-01-22 17:15:00,36.9,8.6,29.74,North,0,0.0,0.0,18,0.00,,,0.00,fowsr,2013-01-22 22:15:00,
2013-01-22 17:25:00,36.5,8.3,29.75,SE,135,0.0,0.7,18,0.00,,,0.00,fowsr,2013-01-22 22:25:00,
2013-01-22 17:30:00,36.1,8.0,29.74,West,270,0.0,0.0,18,0.00,,,0.00,fowsr,2013-01-22 22:30:00,
2013-01-22 17:35:00,36.0,7.9,29.74,WNW,292,0.0,0.0,18,0.00,,,0.00,fowsr,2013-01-22 22:35:00,
2013-01-22 17:40:00,35.6,7.6,29.74,NW,315,0.0,0.0,18,0.00,,,0.00,fowsr,2013-01-22 22:40:00,
2013-01-22 17:45:00,35.2,8.1,29.74,NE,45,0.0,0.0,19,0.00,,,0.00,fowsr,2013-01-22 22:45:00,
2013-01-22 17:50:00,34.9,7.8,29.74,NE,45,0.0,0.0,19,0.00,,,0.00,fowsr,2013-01-22 22:50:00,
2013-01-22 17:55:00,34.5,7.5,29.75,NE,45,0.0,0.0,19,0.00,,,0.00,fowsr,2013-01-22 22:55:00,
2013-01-22 18:00:00,34.2,7.2,29.75,NE,45,0.0,0.0,19,0.00,,,0.00,fowsr,2013-01-22 23:00:00,
2013-01-22 18:10:00,33.6,7.5,29.76,NE,45,0.0,0.0,20,0.00,,,0.00,fowsr,2013-01-22 23:10:00,
2013-01-22 18:15:00,33.3,8.0,29.76,NE,45,0.0,0.0,21,0.00,,,0.00,fowsr,2013-01-22 23:15:00,
2013-01-22 18:25:00,32.7,7.5,29.76,NE,45,0.0,0.0,21,0.00,,,0.00,fowsr,2013-01-22 23:25:00,
2013-01-22 18:30:00,32.2,7.1,29.76,NE,45,0.0,0.0,21,0.00,,,0.00,fowsr,2013-01-22 23:30:00,
2013-01-22 18:35:00,32.0,7.6,29.77,NE,45,0.0,0.0,22,0.00,,,0.00,fowsr,2013-01-22 23:35:00,
2013-01-22 18:40:00,31.5,6.5,29.77,NE,45,0.0,0.0,21,0.00,,,0.00,fowsr,2013-01-22 23:40:00,
2013-01-22 18:45:00,31.3,7.7,29.77,NE,45,0.0,0.0,23,0.00,,,0.00,fowsr,2013-01-22 23:45:00,
2013-01-22 18:50:00,30.9,7.4,29.77,NE,45,0.0,0.0,23,0.00,,,0.00,fowsr,2013-01-22 23:50:00,
2013-01-22 18:55:00,30.7,7.8,29.77,NE,45,0.0,0.0,24,0.00,,,0.00,fowsr,2013-01-22 23:55:00,
2013-01-22 19:00:00,30.4,7.5,29.77,NE,45,0.0,0.0,24,0.00,,,0.00,fowsr,2013-01-23 00:00:00,
2013-01-22 19:05:00,30.2,7.4,29.77,NE,45,0.0,0.0,24,0.00,,,0.00,fowsr,2013-01-23 00:05:00,
2013-01-22 19:10:00,30.0,7.8,29.77,NE,45,0.0,0.0,25,0.00,,,0.00,fowsr,2013-01-23 00:10:00,
2013-01-22 19:15:00,29.7,7.5,29.78,NE,45,0.0,0.0,25,0.00,,,0.00,fowsr,2013-01-23 00:15:00,
2013-01-22 19:20:00,29.5,7.4,29.78,NE,45,0.0,0.0,25,0.00,,,0.00,fowsr,2013-01-23 00:20:00,
2013-01-22 19:25:00,29.1,7.1,29.77,NE,45,0.0,0.0,25,0.00,,,0.00,fowsr,2013-01-23 00:25:00,
2013-01-22 19:30:00,28.9,7.5,29.77,NE,45,0.0,0.0,26,0.00,,,0.00,fowsr,2013-01-23 00:30:00,
2013-01-22 19:35:00,28.8,7.3,29.77,NE,45,0.0,0.0,26,0.00,,,0.00,fowsr,2013-01-23 00:35:00,
2013-01-22 19:40:00,28.6,7.2,29.77,NE,45,0.0,0.0,26,0.00,,,0.00,fowsr,2013-01-23 00:40:00,
2013-01-22 19:45:00,28.4,7.0,29.77,NE,45,0.0,0.0,26,0.00,,,0.00,fowsr,2013-01-23 00:45:00,
2013-01-22 19:55:00,28.0,5.0,29.78,NE,45,0.0,0.0,23,0.00,,,0.00,fowsr,2013-01-23 00:55:00,
2013-01-22 20:00:00,27.9,5.4,29.78,NE,45,0.0,0.0,24,0.00,,,0.00,fowsr,2013-01-23 01:00:00,
2013-01-22 20:05:00,27.9,5.4,29.78,NE,45,0.0,0.0,24,0.00,,,0.00,fowsr,2013-01-23 01:05:00,
2013-01-22 20:10:00,27.7,5.3,29.78,NE,45,0.0,0.0,24,0.00,,,0.00,fowsr,2013-01-23 01:10:00,
2013-01-22 20:15:00,27.7,5.3,29.77,NE,45,0.0,0.0,24,0.00,,,0.00,fowsr,2013-01-23 01:15:00,
2013-01-22 20:20:00,27.7,5.3,29.77,NE,45,0.0,0.0,24,0.00,,,0.00,fowsr,2013-01-23 01:20:00,
2013-01-22 20:25:00,27.9,6.0,29.79,NW,315,0.0,0.0,25,0.00,,,0.00,fowsr,2013-01-23 01:25:00,
2013-01-22 20:30:00,27.9,7.7,29.79,NW,315,0.0,0.0,28,0.00,,,0.00,fowsr,2013-01-23 01:30:00,
2013-01-22 20:35:00,27.7,8.0,29.78,NW,315,0.0,0.0,29,0.00,,,0.00,fowsr,2013-01-23 01:35:00,
2013-01-22 20:40:00,27.7,8.5,29.79,NW,315,0.0,0.0,30,0.00,,,0.00,fowsr,2013-01-23 01:40:00,
2013-01-22 20:45:00,27.5,8.8,29.79,NW,315,0.0,0.0,31,0.00,,,0.00,fowsr,2013-01-23 01:45:00,
2013-01-22 20:50:00,27.3,8.7,29.79,NW,315,0.0,0.0,31,0.00,,,0.00,fowsr,2013-01-23 01:50:00,
2013-01-22 20:55:00,27.3,8.2,29.79,NW,315,0.0,0.0,30,0.00,,,0.00,fowsr,2013-01-23 01:55:00,
2013-01-22 21:00:00,27.3,8.2,29.79,NW,315,0.0,0.0,30,0.00,,,0.00,fowsr,2013-01-23 02:00:00,
2013-01-22 21:05:00,27.3,8.2,29.79,North,0,0.0,0.0,30,0.00,,,0.00,fowsr,2013-01-23 02:05:00,
2013-01-22 21:10:00,27.5,8.4,29.79,South,180,0.0,0.0,30,0.00,,,0.00,fowsr,2013-01-23 02:10:00,
2013-01-22 21:15:00,27.7,8.0,29.79,NW,315,0.0,0.0,29,0.00,,,0.00,fowsr,2013-01-23 02:15:00,
2013-01-22 21:20:00,27.9,8.2,29.80,NW,315,0.0,0.0,29,0.00,,,0.00,fowsr,2013-01-23 02:20:00,
2013-01-22 21:25:00,27.9,7.7,29.80,NW,315,0.0,0.0,28,0.00,,,0.00,fowsr,2013-01-23 02:25:00,
2013-01-22 21:30:00,28.0,7.3,29.81,NW,315,0.0,0.0,27,0.00,,,0.00,fowsr,2013-01-23 02:30:00,
2013-01-22 21:35:00,28.0,6.7,29.80,SW,225,0.0,0.0,26,0.00,,,0.00,fowsr,2013-01-23 02:35:00,
2013-01-22 21:40:00,28.0,6.2,29.80,SE,135,0.0,0.0,25,0.00,,,0.00,fowsr,2013-01-23 02:40:00,
2013-01-22 21:45:00,28.2,6.3,29.75,SE,135,0.0,0.0,25,0.00,,,0.00,fowsr,2013-01-23 02:45:00,
2013-01-22 21:50:00,28.2,6.3,29.81,NW,315,0.0,0.0,25,0.00,,,0.00,fowsr,2013-01-23 02:50:00,
2013-01-22 21:55:00,28.0,5.6,29.81,South,180,0.0,0.0,24,0.00,,,0.00,fowsr,2013-01-23 02:55:00,
2013-01-22 22:05:00,27.9,5.4,29.81,South,180,0.0,0.0,24,0.00,,,0.00,fowsr,2013-01-23 03:05:00,
2013-01-22 22:10:00,27.9,5.4,29.82,South,180,0.0,0.0,24,0.00,,,0.00,fowsr,2013-01-23 03:10:00,
2013-01-22 22:15:00,27.9,5.4,29.82,South,180,0.0,0.0,24,0.00,,,0.00,fowsr,2013-01-23 03:15:00,
2013-01-22 22:20:00,27.7,5.3,29.82,West,270,0.0,0.0,24,0.00,,,0.00,fowsr,2013-01-23 03:20:00,
2013-01-22 22:25:00,27.5,5.1,29.83,West,270,0.0,0.0,24,0.00,,,0.00,fowsr,2013-01-23 03:25:00,
2013-01-22 22:30:00,27.5,5.1,29.83,West,270,0.0,0.0,24,0.00,,,0.00,fowsr,2013-01-23 03:30:00,
2013-01-22 22:35:00,27.3,5.5,29.83,West,270,0.0,0.0,25,0.00,,,0.00,fowsr,2013-01-23 03:35:00,
2013-01-22 22:40:00,27.3,6.1,29.84,West,270,0.0,0.0,26,0.00,,,0.00,fowsr,2013-01-23 03:40:00,
2013-01-22 22:50:00,27.1,5.4,29.84,West,270,0.0,0.0,25,0.00,,,0.00,fowsr,2013-01-23 03:50:00,
2013-01-22 22:55:00,27.0,5.2,29.83,West,270,0.0,0.0,25,0.00,,,0.00,fowsr,2013-01-23 03:55:00,
2013-01-22 23:00:00,27.0,4.7,29.83,West,270,0.0,0.0,24,0.00,,,0.00,fowsr,2013-01-23 04:00:00,
2013-01-22 23:05:00,27.0,4.7,29.84,West,270,0.0,0.0,24,0.00,,,0.00,fowsr,2013-01-23 04:05:00,
2013-01-22 23:10:00,27.0,4.7,29.83,West,270,0.0,0.0,24,0.00,,,0.00,fowsr,2013-01-23 04:10:00,
2013-01-22 23:15:00,27.0,4.7,29.83,West,270,0.0,0.0,24,0.00,,,0.00,fowsr,2013-01-23 04:15:00,
2013-01-22 23:25:00,27.0,4.7,29.83,West,270,0.0,0.0,24,0.00,,,0.00,fowsr,2013-01-23 04:25:00,
2013-01-22 23:30:00,26.8,3.9,29.83,SE,135,0.0,0.0,23,0.00,,,0.00,fowsr,2013-01-23 04:30:00,
2013-01-22 23:35:00,26.8,4.5,29.83,SE,135,0.0,0.0,24,0.00,,,0.00,fowsr,2013-01-23 04:35:00,
2013-01-22 23:40:00,26.8,4.5,29.83,South,180,0.0,0.0,24,0.00,,,0.00,fowsr,2013-01-23 04:40:00,
2013-01-22 23:45:00,26.8,4.5,29.83,South,180,0.0,0.0,24,0.00,,,0.00,fowsr,2013-01-23 04:45:00,
2013-01-22 23:50:00,26.6,4.4,29.83,South,180,0.0,0.0,24,0.00,,,0.00,fowsr,2013-01-23 04:50:00,
2013-01-22 23:55:00,26.6,4.4,29.84,South,180,0.0,0.7,24,0.00,,,0.00,fowsr,2013-01-23 04:55:00,